Aeroporto :







RITROVATECI SU...

 
LOGIN :

Iscrizione | Disclaimer

   EN    FR    IT 

 









Sommario :    VFR   VFR Marginale   IFR   IFR Intensivo   IFR Molto Intensivo
Visibilità : 
Base nubi : 
>= 8 km
>= 3000ft
5 / 8 km
1000 / 3000 ft
1500m / 5 km
500 / 1000 ft
800 / 1500m
200 / 500 ft
< 800m
< 200 ft
Simboli :   Temporali  Nebbia  Neve Forte  Precipitazioni Forti  Vento > 20 kt






- Altitudine del aeroporto : 1270 ft
- Codice IATA : YMT


CYMT - Chapais

ULTIMO METAR :
  • 041745Z AUTO 25005KT 2 1/4SM -SN BKN012 BKN032 OVC043 M04/M06 A2969 RMK VIS VRB 1 3/4-3 SLP079

METARs OBSOLETI :
  • 041729Z AUTO 25005KT 3SM -SN FEW014 OVC038 M04/M06 A2968 RMK SLP078
  • 041719Z AUTO 27007KT 2SM -SN FEW014 BKN034 OVC043 M04/M06 A2968 RMK SLP078
  • 041702Z AUTO 27004KT 2 1/2SM -SN FEW011 OVC038 M04/M06 A2968 RMK VIS VRB 1 3/4-3 SLP077
  • 041644Z AUTO 29006KT 4SM -SN SCT011 BKN040 BKN047 OVC060 M04/M06 A2968 RMK SLP075
  • 041621Z AUTO 26005KT 8SM -SN SCT011 BKN015 BKN043 OVC050 M04/M06 A2968 RMK SLP074
  • 041609Z AUTO 28006KT 6SM -SN SCT009 SCT014 OVC043 M04/M06 A2968 RMK SLP074
  • 041557Z AUTO 27008KT 220V280 5SM -SN SCT008 OVC043 M04/M06 A2968 RMK SLP075
  • 041548Z AUTO 26004KT 230V290 6SM -SN BKN010 OVC043 M04/M05 A2968 RMK SLP076
  • 041535Z AUTO 27007KT 230V310 5SM -SN OVC008 M04/M05 A2968 RMK SLP076
  • 041502Z AUTO 24007KT 9SM -SN BKN008 OVC075 M04/M06 A2966 RMK SLP075
  • 041450Z AUTO 24007KT 9SM SCT011 BKN014 OVC075 M04/M06 A2966 RMK SLP073

TAF AMD TAF CYMT
Valido dal 04 a 17 ore il 05 a 01 ore UTC


041730Z 0417/0501 26005KT 6SM -SN SCT015 BKN030
TEMPO 0417/0501 21/2SM -SN BKN008 OVC015 RMK FCST BASED ON AUTO OBS. NXT FCST BY 041800Z
FIR CZUL / America del Nord



MetMap, La meteo Aeronautica in un colpo d'occhio ! - Copyright ORBIFLY Dicembre 2007 - Disclaimer

ORBIFLY MET'MAP TEAM :

Programmazione e sviluppo : Alexandra Zaïnal
Concezione : Baudouin d'Aumeries
Aiuto per la programmazione : Marc-Olivier Méhu
Supporto tecnico e logistico : Manuel Goepfert
Aiuto per la traduzione : Arnaldo La Scala

Contatto : metmap@orbifly.com




FONTI E CREDITI :

   NOAA